Time;durP1;ratioP1;P1;durP2;ratioP2;P2;SDS_P1;SDS_P2;PMS_P1;PMS_P2;Temp;Humidity;BMP_temperature;BMP_pressure;BME280_temperature;BME280_humidity;BME280_pressure;Samples;Min_cycle;Max_cycle;Signal;HPM_P1;HPM_P2
2024/04/12 00:01:06;;;;;;;16.90;10.90;;;;;;;12.24;98.84;101792.83;179662;1260;45940;-70
2024/04/12 00:05:27;;;;;;;18.40;10.70;;;;;;;12.27;99.29;101796.19;179492;1259;58002;-70
2024/04/12 00:09:40;;;;;;;15.40;10.00;;;;;;;12.33;98.69;101801.27;179511;1260;44828;-70
2024/04/12 00:13:52;;;;;;;15.00;9.90;;;;;;;12.35;98.62;101807.21;179841;1259;45985;-71
2024/04/12 00:17:55;;;;;;;16.90;10.30;;;;;;;12.31;98.14;101804.64;179741;1259;45902;-69
2024/04/12 00:22:29;;;;;;;14.90;11.10;;;;;;;12.32;95.76;101803.73;179811;1260;45129;-71
2024/04/12 00:26:34;;;;;;;8.80;6.70;;;;;;;12.25;92.03;101804.86;179908;1260;58923;-70
2024/04/12 00:30:51;;;;;;;12.30;6.60;;;;;;;12.22;89.59;101806.27;180055;1260;45986;-70
2024/04/12 00:34:55;;;;;;;10.40;7.00;;;;;;;12.19;91.82;101803.96;180012;1260;45941;-70
2024/04/12 00:39:35;;;;;;;13.30;6.70;;;;;;;12.10;93.00;101802.95;179852;1260;43873;-71
2024/04/12 00:43:36;;;;;;;12.30;7.00;;;;;;;12.01;91.91;101801.73;179857;1259;45972;-70
2024/04/12 00:48:07;;;;;;;8.40;5.60;;;;;;;11.99;93.08;101799.90;179768;1260;58405;-70
2024/04/12 00:52:12;;;;;;;9.60;5.90;;;;;;;11.95;93.94;101804.00;179930;1260;45014;-71
2024/04/12 00:56:16;;;;;;;7.30;6.40;;;;;;;11.93;95.18;101798.30;179826;1259;46057;-69
2024/04/12 01:00:20;;;;;;;22.30;6.50;;;;;;;11.81;98.69;101797.23;179935;1259;43794;-68
2024/04/12 01:04:23;;;;;;;9.60;6.50;;;;;;;11.68;100.00;101801.62;180004;1259;43784;-71
2024/04/12 01:09:10;;;;;;;11.00;7.30;;;;;;;11.55;100.00;101801.55;179985;1259;58767;-70
2024/04/12 01:13:15;;;;;;;;;;;;;;;11.38;100.00;101802.02;180155;1259;43532;-70
2024/04/12 01:17:18;;;;;;;10.10;5.70;;;;;;;11.23;100.00;101799.75;180055;1259;45777;-73
2024/04/12 01:21:25;;;;;;;8.80;6.80;;;;;;;11.13;100.00;101794.81;179923;1259;44710;-71
2024/04/12 01:25:29;;;;;;;10.10;6.70;;;;;;;11.04;100.00;101790.95;179979;1259;46001;-70
2024/04/12 01:29:32;;;;;;;9.10;6.50;;;;;;;10.94;100.00;101789.90;179760;1259;58499;-70
2024/04/12 01:33:40;;;;;;;54.90;13.20;;;;;;;10.80;100.00;101793.93;179999;1259;46620;-70
2024/04/12 01:37:46;;;;;;;17.40;7.80;;;;;;;10.68;100.00;101794.45;180027;1259;44919;-69
2024/04/12 01:41:49;;;;;;;10.20;6.40;;;;;;;10.63;100.00;101796.48;179986;1259;46005;-69
2024/04/12 01:45:54;;;;;;;17.40;7.40;;;;;;;10.59;100.00;101790.87;179964;1260;45008;-70
2024/04/12 01:50:01;;;;;;;8.80;6.40;;;;;;;10.63;100.00;101788.35;179715;1258;58962;-70
2024/04/12 01:54:22;;;;;;;;;;;;;;;10.64;100.00;101784.19;179643;1260;46107;-69
2024/04/12 01:58:26;;;;;;;6.50;5.30;;;;;;;10.62;100.00;101782.54;179937;1259;43652;-68
2024/04/12 02:02:30;;;;;;;8.10;5.10;;;;;;;10.60;99.82;101778.21;180182;1259;44890;-70
2024/04/12 02:06:41;;;;;;;17.20;6.90;;;;;;;10.53;98.35;101777.20;180189;1259;44990;-70
2024/04/12 02:10:53;;;;;;;6.70;5.60;;;;;;;10.43;99.05;101775.08;180004;1259;58732;-69
2024/04/12 02:15:03;;;;;;;7.70;5.50;;;;;;;10.23;99.99;101785.08;180346;1259;45908;-70
2024/04/12 02:19:15;;;;;;;13.90;4.30;;;;;;;10.08;100.00;101784.82;180195;1259;43630;-71
2024/04/12 02:23:19;;;;;;;8.00;6.00;;;;;;;9.93;99.97;101785.14;180060;1259;46211;-71
2024/04/12 02:27:28;;;;;;;7.40;5.00;;;;;;;9.84;99.98;101783.30;179927;1259;43883;-71
2024/04/12 02:31:35;;;;;;;9.70;5.70;;;;;;;9.83;99.94;101778.02;180037;1259;56969;-69
2024/04/12 02:35:46;;;;;;;12.60;5.30;;;;;;;9.91;99.84;101778.70;180161;1259;46487;-70
2024/04/12 02:39:53;;;;;;;6.40;5.40;;;;;;;9.94;99.47;101774.27;179961;1259;45968;-70
2024/04/12 02:44:03;;;;;;;7.70;5.00;;;;;;;9.97;99.24;101775.16;180001;1259;45102;-70
2024/04/12 02:48:07;;;;;;;8.00;5.80;;;;;;;9.98;98.59;101769.94;179976;1259;45890;-70
2024/04/12 02:52:13;;;;;;;8.50;5.70;;;;;;;9.94;98.06;101770.39;179823;1259;58869;-70
2024/04/12 02:56:18;;;;;;;8.30;5.50;;;;;;;9.90;98.46;101771.85;179994;1259;45411;-70
2024/04/12 03:00:25;;;;;;;6.40;4.90;;;;;;;9.83;99.03;101777.69;179993;1259;43586;-70
2024/04/12 03:04:29;;;;;;;6.00;4.10;;;;;;;9.76;99.34;101772.09;179920;1259;43588;-70
2024/04/12 03:08:35;;;;;;;37.70;9.80;;;;;;;9.68;99.60;101771.06;180125;1259;44644;-70
2024/04/12 03:12:43;;;;;;;18.40;8.20;;;;;;;9.64;99.92;101770.55;179850;1259;58623;-70
2024/04/12 03:16:51;;;;;;;10.30;5.80;;;;;;;9.60;99.97;101770.60;179941;1259;44647;-69
2024/04/12 03:20:54;;;;;;;7.00;5.50;;;;;;;9.58;99.98;101766.45;179977;1259;43836;-68
2024/04/12 03:24:59;;;;;;;12.30;5.30;;;;;;;9.61;99.91;101759.59;180062;1259;43724;-69
2024/04/12 03:29:05;;;;;;;8.00;4.70;;;;;;;9.65;98.98;101757.79;180102;1259;45938;-71
2024/04/12 03:33:09;;;;;;;5.90;4.50;;;;;;;9.62;99.18;101754.91;179632;1263;58789;-71
2024/04/12 03:42:05;;;;;;;13.40;5.30;;;;;;;9.52;98.52;101759.36;180090;1259;43503;-70
2024/04/12 03:46:11;;;;;;;7.30;4.80;;;;;;;9.51;98.27;101753.38;179952;1260;45292;-70
2024/04/12 04:00:28;;;;;;;9.80;4.90;;;;;;;9.41;98.17;101751.25;179984;1259;46102;-69
2024/04/12 04:04:37;;;;;;;8.10;4.20;;;;;;;9.24;98.27;101753.41;179947;1259;45092;-70
2024/04/12 04:08:48;;;;;;;9.30;6.20;;;;;;;9.13;99.55;101754.81;179818;1259;44883;-70
2024/04/12 04:12:53;;;;;;;6.60;4.30;;;;;;;9.10;99.96;101755.88;180123;1258;43619;-70
2024/04/12 04:17:10;;;;;;;8.10;4.80;;;;;;;9.09;100.00;101763.17;179907;1259;58929;-70
2024/04/12 04:21:13;;;;;;;9.70;5.10;;;;;;;9.11;100.00;101764.31;180172;1259;44869;-71
2024/04/12 04:25:19;;;;;;;8.50;5.90;;;;;;;9.10;100.00;101764.54;180014;1262;46115;-71
2024/04/12 04:29:23;;;;;;;5.20;4.10;;;;;;;9.11;100.00;101767.70;180122;1260;46198;-70
2024/04/12 04:33:27;;;;;;;9.40;3.70;;;;;;;9.41;100.00;101766.15;179962;1259;43502;-70
2024/04/12 04:37:34;;;;;;;8.00;3.40;;;;;;;10.07;100.00;101764.67;180028;1259;59358;-70
2024/04/12 04:41:43;;;;;;;6.60;4.10;;;;;;;10.82;99.72;101762.55;179805;1259;45866;-70
2024/04/12 04:45:48;;;;;;;6.40;4.20;;;;;;;11.62;98.33;101764.32;180085;1259;45119;-69
2024/04/12 04:49:52;;;;;;;9.60;4.80;;;;;;;12.44;96.91;101764.45;180076;1259;44952;-70
2024/04/12 04:53:59;;;;;;;11.60;5.20;;;;;;;13.10;92.25;101764.11;180462;1259;43624;-69
2024/04/12 04:58:02;;;;;;;13.10;5.00;;;;;;;13.81;92.63;101765.64;180387;1259;58331;-70
2024/04/12 05:02:05;;;;;;;6.40;3.50;;;;;;;14.57;88.69;101756.90;180313;1259;43750;-70
2024/04/12 05:06:12;;;;;;;45.50;6.10;;;;;;;15.26;84.88;101753.09;180515;1259;43697;-69
2024/04/12 05:10:33;;;;;;;16.90;4.60;;;;;;;15.79;79.47;101756.23;180227;1259;43737;-70
2024/04/12 05:18:47;;;;;;;8.00;3.20;;;;;;;17.24;74.57;101757.52;180420;1259;58285;-69
2024/04/12 05:22:51;;;;;;;9.50;3.60;;;;;;;17.97;68.70;101763.55;180319;1260;45831;-69
2024/04/12 05:27:01;;;;;;;19.80;4.40;;;;;;;18.29;64.57;101766.83;180469;1259;44355;-69
2024/04/12 05:31:30;;;;;;;;;;;;;;;18.47;65.48;101774.48;180534;1259;44496;-69
2024/04/12 05:35:37;;;;;;;10.50;3.90;;;;;;;18.53;65.04;101780.44;180622;1259;45729;-69
2024/04/12 05:39:42;;;;;;;5.20;2.70;;;;;;;18.53;65.25;101789.36;180446;1259;58530;-69
2024/04/12 05:43:46;;;;;;;3.40;2.50;;;;;;;18.25;64.32;101793.91;180522;1259;43775;-69
2024/04/12 05:48:21;;;;;;;11.00;2.70;;;;;;;17.98;66.64;101796.64;180427;1259;43870;-69
2024/04/12 05:52:30;;;;;;;5.70;3.00;;;;;;;17.58;67.55;101794.91;180632;1259;43781;-69
2024/04/12 05:56:33;;;;;;;7.30;3.40;;;;;;;17.06;68.82;101798.02;180405;1259;44890;-69
2024/04/12 06:00:41;;;;;;;4.90;2.80;;;;;;;17.00;72.43;101799.55;180547;1259;58715;-69
2024/04/12 06:04:48;;;;;;;3.20;1.90;;;;;;;17.33;71.50;101800.93;180457;1259;45013;-69
2024/04/12 06:08:52;;;;;;;39.30;7.20;;;;;;;17.52;68.34;101806.61;180483;1259;45937;-69
2024/04/12 06:12:57;;;;;;;14.30;3.60;;;;;;;17.24;66.69;101809.54;180496;1259;43800;-69
2024/04/12 06:17:43;;;;;;;4.10;2.60;;;;;;;16.86;70.33;101808.02;180492;1259;46101;-69
2024/04/12 06:21:50;;;;;;;4.50;2.60;;;;;;;16.82;72.68;101801.94;180388;1259;60218;-69
2024/04/12 06:25:58;;;;;;;5.20;2.80;;;;;;;16.94;74.82;101806.10;180188;1259;44038;-69
2024/04/12 06:30:05;;;;;;;7.80;3.00;;;;;;;17.17;75.20;101805.86;180307;1259;45361;-70
2024/04/12 06:34:12;;;;;;;6.20;2.50;;;;;;;17.22;71.54;101807.26;180389;1259;43962;-69
2024/04/12 06:38:21;;;;;;;5.70;3.00;;;;;;;17.17;72.20;101812.43;180498;1259;45940;-69
2024/04/12 06:42:27;;;;;;;8.20;3.80;;;;;;;17.20;75.07;101811.34;180436;1259;58352;-68
2024/04/12 06:46:32;;;;;;;11.70;3.80;;;;;;;17.10;71.69;101807.69;180382;1259;43773;-69
2024/04/12 06:50:38;;;;;;;11.30;3.10;;;;;;;16.86;71.31;101805.90;180452;1259;44311;-69
2024/04/12 06:55:08;;;;;;;9.30;4.10;;;;;;;16.69;71.22;101804.66;180347;1259;45121;-69
2024/04/12 06:59:13;;;;;;;10.80;4.20;;;;;;;16.79;73.93;101806.53;180488;1259;45863;-69
2024/04/12 07:03:17;;;;;;;13.80;4.80;;;;;;;16.69;71.16;101808.01;180423;1259;58411;-69
2024/04/12 07:08:01;;;;;;;8.50;3.30;;;;;;;16.74;71.69;101805.84;180543;1259;45029;-69
2024/04/12 07:12:07;;;;;;;10.00;4.80;;;;;;;16.81;73.63;101805.98;180474;1259;43610;-69
2024/04/12 07:16:11;;;;;;;8.00;3.00;;;;;;;17.12;73.14;101803.42;180434;1259;43717;-69
2024/04/12 07:20:21;;;;;;;8.50;3.30;;;;;;;17.36;72.58;101797.79;180552;1259;45965;-69
2024/04/12 07:24:33;;;;;;;6.20;3.40;;;;;;;17.52;71.73;101794.80;180509;1262;58266;-69
2024/04/12 07:28:37;;;;;;;7.90;3.70;;;;;;;17.76;71.92;101796.83;180350;1259;43709;-68
2024/04/12 07:32:47;;;;;;;10.00;4.40;;;;;;;17.94;72.89;101799.75;180430;1263;44833;-69
2024/04/12 07:36:52;;;;;;;7.00;3.30;;;;;;;18.14;71.35;101796.39;180461;1259;45759;-69
2024/04/12 07:40:55;;;;;;;4.90;3.20;;;;;;;18.33;71.87;101794.66;180442;1259;43528;-69
2024/04/12 07:45:00;;;;;;;7.60;3.40;;;;;;;18.45;72.90;101791.23;180554;1259;57562;-69
2024/04/12 07:49:48;;;;;;;12.90;3.10;;;;;;;18.59;72.64;101788.35;180551;1259;44849;-69
2024/04/12 07:54:43;;;;;;;4.80;2.90;;;;;;;18.68;72.86;101788.20;180469;1260;43617;-69
2024/04/12 07:59:33;;;;;;;6.00;3.10;;;;;;;18.69;72.58;101787.78;180486;1259;45779;-68
2024/04/12 08:03:37;;;;;;;5.70;3.30;;;;;;;18.66;71.77;101787.73;180477;1259;43987;-69
2024/04/12 08:07:41;;;;;;;3.60;2.60;;;;;;;18.86;71.97;101784.65;180535;1259;58319;-69
2024/04/12 08:11:51;;;;;;;9.10;3.10;;;;;;;18.98;71.87;101781.66;180302;1259;46052;-69
2024/04/12 08:16:00;;;;;;;8.00;3.70;;;;;;;19.10;72.39;101775.85;180189;1259;44447;-69
2024/04/12 08:20:13;;;;;;;11.20;2.20;;;;;;;19.21;72.80;101769.47;180362;1259;43964;-70
2024/04/12 08:24:22;;;;;;;12.20;3.90;;;;;;;19.22;71.77;101768.08;180153;1262;45973;-69
2024/04/12 08:28:27;;;;;;;7.50;2.60;;;;;;;19.31;71.62;101767.52;179917;1259;407955;-69
2024/04/12 08:32:33;;;;;;;5.80;2.30;;;;;;;19.45;69.96;101760.70;180438;1259;43663;-69
2024/04/12 08:36:37;;;;;;;6.60;3.10;;;;;;;19.61;72.27;101756.51;180550;1259;43560;-69
2024/04/12 08:40:40;;;;;;;7.90;4.10;;;;;;;19.77;71.15;101755.31;180606;1259;43622;-69
2024/04/12 08:44:46;;;;;;;5.00;3.00;;;;;;;19.83;70.54;101751.64;180393;1259;43907;-69
2024/04/12 08:48:49;;;;;;;5.50;3.70;;;;;;;20.12;72.74;101744.91;180366;1259;58566;-69
2024/04/12 08:53:55;;;;;;;4.30;2.50;;;;;;;20.30;70.81;101746.50;180344;1259;44932;-69
2024/04/12 08:58:06;;;;;;;4.10;3.70;;;;;;;20.37;68.71;101746.88;180359;1259;43685;-71
2024/04/12 09:02:13;;;;;;;7.00;2.90;;;;;;;20.59;67.87;101740.23;180404;1259;43863;-69
2024/04/12 09:06:23;;;;;;;5.00;2.60;;;;;;;20.66;68.27;101735.02;180531;1259;43876;-69
2024/04/12 09:10:34;;;;;;;6.90;3.30;;;;;;;20.41;67.63;101739.71;180272;1259;58682;-69
2024/04/12 09:14:40;;;;;;;4.60;2.80;;;;;;;20.31;69.81;101735.84;180511;1259;43761;-69
2024/04/12 09:18:51;;;;;;;7.80;2.80;;;;;;;20.46;70.92;101741.01;180446;1259;44931;-69
2024/04/12 09:23:13;;;;;;;7.90;3.40;;;;;;;20.63;67.85;101743.80;180657;1259;43556;-69
2024/04/12 09:27:44;;;;;;;7.20;3.00;;;;;;;20.85;69.63;101743.02;180473;1259;43528;-69
2024/04/12 09:36:13;;;;;;;5.80;3.10;;;;;;;20.82;69.29;101744.81;180512;1259;44886;-69
2024/04/12 09:40:28;;;;;;;6.40;3.00;;;;;;;20.67;68.94;101745.88;180673;1259;43757;-69
2024/04/12 09:44:48;;;;;;;6.70;3.10;;;;;;;20.53;69.55;101742.65;180458;1259;45950;-69
2024/04/12 10:38:58;;;;;;;5.60;2.40;;;;;;;20.02;64.83;101688.84;180600;1260;58449;-69
2024/04/12 10:43:04;;;;;;;7.00;2.10;;;;;;;20.10;67.16;101683.17;180465;1259;43770;-69
2024/04/12 10:47:20;;;;;;;3.40;1.20;;;;;;;20.18;65.39;101674.23;180504;1260;44759;-68
2024/04/12 10:51:24;;;;;;;3.00;1.40;;;;;;;20.32;63.25;101675.60;180449;1259;43625;-69
2024/04/12 10:55:34;;;;;;;5.70;2.70;;;;;;;20.32;65.89;101671.89;180408;1259;45871;-69
2024/04/12 11:04:15;;;;;;;15.20;3.20;;;;;;;20.33;67.29;101651.52;158877;1253;90953;-68
2024/04/12 11:32:06;;;;;;;;;;;;;;;21.00;62.78;101606.94;171764;1259;94481;-68
2024/04/12 11:37:08;;;;;;;4.60;2.00;;;;;;;20.85;58.15;101610.34;180500;1259;43427;-68
2024/04/12 11:41:15;;;;;;;4.20;1.60;;;;;;;20.62;61.71;101604.38;180566;1260;44746;-68
2024/04/12 11:45:30;;;;;;;4.90;2.00;;;;;;;20.57;60.58;101596.05;180521;1262;58678;-68
2024/04/12 11:49:57;;;;;;;2.10;1.20;;;;;;;20.68;60.09;101592.09;180491;1260;43754;-68
2024/04/12 11:54:01;;;;;;;2.60;1.70;;;;;;;20.61;60.01;101580.13;180557;1259;45904;-68
2024/04/12 11:58:08;;;;;;;6.60;2.00;;;;;;;20.76;58.44;101579.36;180374;1259;45413;-68
2024/04/12 12:02:15;;;;;;;17.20;3.40;;;;;;;20.92;59.90;101572.86;180604;1260;43503;-69
2024/04/12 12:06:22;;;;;;;4.60;1.30;;;;;;;21.07;57.40;101562.98;180419;1260;59201;-69
2024/04/12 12:10:25;;;;;;;5.80;1.70;;;;;;;21.04;58.21;101558.73;180495;1258;45923;-69
2024/04/12 12:14:29;;;;;;;21.60;4.60;;;;;;;21.21;59.47;101548.67;180465;1260;46052;-69
2024/04/12 12:18:35;;;;;;;6.90;1.70;;;;;;;21.29;58.76;101546.88;180405;1260;44833;-69
2024/04/12 12:22:38;;;;;;;1.50;1.20;;;;;;;21.42;59.88;101536.34;180426;1260;43607;-69
2024/04/12 12:26:41;;;;;;;2.20;1.00;;;;;;;21.40;58.52;101530.35;180492;1260;58172;-69
2024/04/12 12:31:05;;;;;;;6.80;2.20;;;;;;;21.33;58.17;101518.36;180539;1260;43958;-69
2024/04/12 12:35:09;;;;;;;10.60;2.60;;;;;;;21.35;57.17;101507.34;180639;1260;43720;-69
2024/04/12 12:39:12;;;;;;;7.00;1.80;;;;;;;21.43;59.06;101502.13;180455;1263;43679;-68
2024/04/12 12:43:28;;;;;;;9.80;2.00;;;;;;;21.54;58.55;101494.56;180353;1260;44879;-69
2024/04/12 12:47:32;;;;;;;3.70;1.30;;;;;;;21.71;58.57;101488.11;180166;1263;58776;-69
2024/04/12 12:51:40;;;;;;;5.30;1.40;;;;;;;21.76;56.38;101480.54;180551;1259;44300;-69
2024/04/12 12:55:43;;;;;;;2.30;1.30;;;;;;;21.86;56.37;101474.15;180369;1262;45073;-69
2024/04/12 12:59:54;;;;;;;8.70;3.10;;;;;;;21.85;57.46;101461.63;180587;1261;44474;-69
2024/04/12 13:03:58;;;;;;;21.60;3.30;;;;;;;21.91;57.55;101460.44;180545;1260;46098;-69
2024/04/12 13:08:04;;;;;;;2.60;1.40;;;;;;;21.93;54.92;101452.95;180592;1260;58822;-70
2024/04/12 13:12:11;;;;;;;5.10;1.30;;;;;;;21.99;57.37;101440.52;180410;1260;45901;-69
2024/04/12 13:16:15;;;;;;;2.10;1.10;;;;;;;21.93;58.09;101439.38;180337;1260;45438;-69
2024/04/12 13:20:20;;;;;;;7.00;1.80;;;;;;;21.97;55.40;101430.31;180327;1260;43941;-69
2024/04/12 13:24:24;;;;;;;55.40;10.80;;;;;;;22.04;56.34;101427.23;180597;1261;43593;-69
2024/04/12 13:28:54;;;;;;;6.30;1.10;;;;;;;22.12;56.54;101421.58;180444;1263;57953;-68
2024/04/12 13:32:58;;;;;;;9.00;2.20;;;;;;;22.15;57.52;101415.46;180596;1259;43654;-69
2024/04/12 13:37:06;;;;;;;;;;;;;;;22.12;57.46;101420.15;180541;1260;43941;-69
2024/04/12 13:41:10;;;;;;;4.20;1.80;;;;;;;22.04;56.39;101411.45;180380;1261;43416;-70
2024/04/12 13:54:03;;;;;;;4.20;1.90;;;;;;;22.26;56.49;101401.98;180546;1259;44901;-69
2024/04/12 13:58:07;;;;;;;16.60;4.10;;;;;;;22.08;57.43;101395.64;180438;1260;46215;-69
2024/04/12 14:02:10;;;;;;;10.00;2.40;;;;;;;21.95;57.45;101395.55;180315;1260;45230;-69
2024/04/12 14:06:13;;;;;;;7.60;1.40;;;;;;;22.01;57.14;101389.80;180418;1260;43553;-69
2024/04/12 14:10:20;;;;;;;4.00;1.50;;;;;;;22.17;56.75;101385.11;180181;1260;59186;-69
2024/04/12 14:14:25;;;;;;;8.40;2.00;;;;;;;22.34;55.68;101375.67;180364;1260;46005;-69
2024/04/12 14:18:29;;;;;;;5.00;1.30;;;;;;;22.45;54.27;101376.33;180395;1259;44638;-69
2024/04/12 14:22:59;;;;;;;2.30;1.60;;;;;;;22.61;54.27;101368.58;180309;1260;44985;-69
2024/04/12 14:27:03;;;;;;;1.60;0.90;;;;;;;22.73;55.22;101364.67;180466;1260;43629;-69
2024/04/12 14:31:08;;;;;;;8.50;1.80;;;;;;;22.68;53.72;101358.80;180547;1260;58602;-69
2024/04/12 14:35:11;;;;;;;16.70;4.70;;;;;;;22.48;55.27;101354.45;180578;1259;44559;-69
2024/04/12 14:39:22;;;;;;;5.30;1.80;;;;;;;22.12;60.03;101358.71;180427;1258;43608;-69
2024/04/12 14:43:34;;;;;;;3.10;1.60;;;;;;;21.84;61.39;101356.26;180458;1259;44682;-69
2024/04/12 14:47:40;;;;;;;5.60;2.00;;;;;;;21.79;61.24;101356.67;180429;1259;43724;-69
2024/04/12 14:51:53;;;;;;;;;;;;;;;21.60;64.29;101354.80;180454;1258;57430;-69
2024/04/12 14:55:57;;;;;;;14.80;3.10;;;;;;;21.39;64.08;101348.61;180494;1259;44705;-69
2024/04/12 15:00:00;;;;;;;4.30;1.20;;;;;;;21.36;60.56;101344.48;180477;1259;43588;-69
2024/04/12 15:48:28;;;;;;;5.20;2.00;;;;;;;20.23;76.27;101309.06;180444;1259;46030;-69
2024/04/12 15:52:37;;;;;;;6.40;2.50;;;;;;;20.07;79.63;101303.88;180400;1260;43550;-69
2024/04/12 16:14:34;;;;;;;4.10;2.10;;;;;;;20.24;77.40;101286.42;180456;1259;43498;-69
2024/04/12 16:18:37;;;;;;;6.60;2.70;;;;;;;20.24;79.40;101278.71;180484;1259;58732;-68
2024/04/12 16:22:40;;;;;;;7.20;3.00;;;;;;;20.20;76.40;101274.22;180451;1260;45124;-69
2024/04/12 16:26:43;;;;;;;10.80;3.40;;;;;;;20.22;73.75;101268.31;180628;1259;44711;-69
2024/04/12 16:30:46;;;;;;;3.50;2.90;;;;;;;20.24;74.97;101268.63;180486;1259;43789;-69
2024/04/12 16:34:58;;;;;;;5.00;2.90;;;;;;;20.08;76.99;101268.90;180577;1259;45952;-69
2024/04/12 16:39:32;;;;;;;4.90;2.30;;;;;;;19.83;77.03;101263.79;180510;1259;58681;-69
2024/04/12 16:43:35;;;;;;;2.80;2.20;;;;;;;19.51;78.41;101264.19;180598;1259;45927;-68
2024/04/12 16:47:39;;;;;;;4.10;2.40;;;;;;;19.23;78.38;101265.31;180609;1259;45136;-69
2024/04/12 16:51:43;;;;;;;8.60;3.60;;;;;;;19.11;77.53;101263.80;180476;1259;43810;-69
2024/04/12 16:55:46;;;;;;;3.90;2.60;;;;;;;18.98;79.65;101257.52;180561;1259;44808;-69
2024/04/12 16:59:49;;;;;;;5.30;2.00;;;;;;;18.88;79.09;101250.13;180469;1258;59120;-69
2024/04/12 17:03:54;;;;;;;2.40;1.90;;;;;;;18.78;78.47;101245.73;180724;1258;43570;-69
2024/04/12 17:07:59;;;;;;;2.80;2.30;;;;;;;18.67;79.84;101243.81;180201;1260;45887;-68
2024/04/12 17:12:08;;;;;;;5.30;3.20;;;;;;;18.50;80.32;101245.27;180348;1259;43616;-69
2024/04/12 17:16:13;;;;;;;5.70;3.10;;;;;;;18.30;81.38;101242.59;180456;1257;43765;-69
2024/04/12 17:20:17;;;;;;;4.30;2.20;;;;;;;18.28;78.82;101246.01;180566;1259;58711;-69
2024/04/12 17:24:20;;;;;;;4.70;2.80;;;;;;;18.25;79.02;101245.63;180292;1259;43538;-69
2024/04/12 17:28:23;;;;;;;4.10;2.90;;;;;;;18.24;80.72;101240.10;180506;1259;43576;-69
2024/04/12 17:32:36;;;;;;;5.10;2.70;;;;;;;18.21;81.67;101232.71;180528;1258;46007;-69
2024/04/12 17:36:39;;;;;;;10.70;3.40;;;;;;;18.13;82.44;101224.75;180535;1257;43508;-69
2024/04/12 17:40:42;;;;;;;7.00;3.50;;;;;;;18.05;82.11;101227.45;180615;1258;58715;-69
2024/04/12 17:44:46;;;;;;;5.70;2.50;;;;;;;17.96;81.87;101228.82;180566;1259;44653;-69
2024/04/12 17:48:49;;;;;;;4.30;2.50;;;;;;;17.82;82.94;101218.23;180451;1259;44730;-69
2024/04/12 17:52:52;;;;;;;4.70;2.90;;;;;;;17.69;82.47;101227.66;180482;1259;43513;-69
2024/04/12 17:56:56;;;;;;;4.20;2.80;;;;;;;17.56;82.22;101227.54;180397;1259;43613;-69
2024/04/12 18:01:04;;;;;;;4.90;3.20;;;;;;;17.42;82.37;101228.52;180443;1258;60288;-69
2024/04/12 18:05:10;;;;;;;9.60;4.50;;;;;;;17.29;82.96;101232.94;180330;1259;43708;-69
2024/04/12 18:09:14;;;;;;;6.20;3.90;;;;;;;17.16;83.20;101240.48;180547;1258;45977;-69
2024/04/12 18:13:18;;;;;;;11.30;4.40;;;;;;;17.03;83.78;101244.88;180441;1259;45989;-69
2024/04/12 18:17:24;;;;;;;8.30;4.80;;;;;;;16.91;84.65;101247.20;180470;1259;44726;-69
2024/04/12 18:21:28;;;;;;;4.90;3.30;;;;;;;16.78;85.23;101242.50;180317;1259;59523;-69
2024/04/12 18:25:31;;;;;;;8.30;4.10;;;;;;;16.67;85.58;101243.90;180634;1258;44642;-69
2024/04/12 18:29:34;;;;;;;8.10;3.40;;;;;;;16.53;85.96;101246.56;180505;1259;45897;-69
2024/04/12 18:33:37;;;;;;;5.60;4.10;;;;;;;16.38;86.70;101251.01;180164;1259;44428;-70
2024/04/12 18:46:48;;;;;;;6.00;3.90;;;;;;;15.98;87.94;101262.11;180193;1259;45879;-69
2024/04/12 18:50:51;;;;;;;7.90;5.30;;;;;;;15.89;88.40;101273.44;180304;1258;45368;-69
2024/04/12 18:54:55;;;;;;;12.80;4.90;;;;;;;15.79;88.91;101271.77;180295;1259;46027;-69
2024/04/12 18:58:59;;;;;;;11.50;4.10;;;;;;;15.68;90.86;101267.59;180311;1259;43774;-69
2024/04/12 19:03:07;;;;;;;11.00;5.20;;;;;;;15.48;92.49;101270.33;180119;1259;58908;-70
2024/04/12 19:07:11;;;;;;;7.10;3.90;;;;;;;15.30;94.83;101275.06;179862;1259;46194;-69
2024/04/12 19:11:14;;;;;;;14.60;5.10;;;;;;;15.11;96.85;101274.09;179926;1260;45986;-69
2024/04/12 19:15:18;;;;;;;6.50;4.30;;;;;;;15.02;96.71;101269.48;180225;1259;46099;-69
2024/04/12 19:19:25;;;;;;;5.30;4.50;;;;;;;14.96;97.11;101268.69;180435;1259;44775;-71
2024/04/12 19:23:29;;;;;;;8.60;4.30;;;;;;;14.92;96.79;101266.84;180251;1259;59440;-69
2024/04/12 19:27:33;;;;;;;4.80;4.20;;;;;;;14.94;96.19;101271.35;180250;1259;44732;-69
2024/04/12 19:31:36;;;;;;;11.00;4.90;;;;;;;14.88;96.43;101272.58;180151;1259;43682;-70
2024/04/12 19:35:56;;;;;;;14.10;5.70;;;;;;;14.83;95.47;101269.23;180214;1260;45834;-70
2024/04/12 19:40:00;;;;;;;10.80;4.80;;;;;;;14.86;94.93;101267.95;180192;1258;44718;-69
2024/04/12 19:44:07;;;;;;;6.40;4.00;;;;;;;14.83;94.64;101265.13;180191;1260;58773;-69
2024/04/12 19:53:11;;;;;;;8.00;3.00;;;;;;;14.87;93.70;101263.06;180138;1259;44938;-70
2024/04/12 19:57:16;;;;;;;5.40;4.00;;;;;;;14.89;93.08;101265.22;180151;1259;46043;-70
2024/04/12 20:01:19;;;;;;;5.90;3.00;;;;;;;14.90;92.69;101260.85;180079;1259;43963;-70
2024/04/12 20:05:23;;;;;;;5.10;2.60;;;;;;;14.89;91.97;101260.91;179942;1259;59898;-70
2024/04/12 20:09:27;;;;;;;6.80;3.50;;;;;;;14.83;91.97;101258.19;180094;1259;45970;-70
2024/04/12 20:13:31;;;;;;;17.10;4.10;;;;;;;14.75;91.08;101254.05;179981;1260;45902;-70
2024/04/12 20:17:35;;;;;;;9.90;3.60;;;;;;;14.62;90.83;101257.02;180019;1259;44410;-70
2024/04/12 20:21:38;;;;;;;5.30;3.60;;;;;;;14.51;90.78;101258.52;179572;1259;46115;-70
2024/04/12 20:25:43;;;;;;;7.60;4.40;;;;;;;14.36;91.24;101259.67;179583;1259;259263;-70
2024/04/12 20:30:46;;;;;;;135.30;25.40;;;;;;;14.28;93.31;101255.02;179889;1259;46202;-70
2024/04/12 20:35:08;;;;;;;89.20;16.20;;;;;;;14.23;94.28;101253.65;180306;1260;46010;-69
2024/04/12 20:39:20;;;;;;;40.50;10.10;;;;;;;14.21;94.38;101253.10;180228;1259;44878;-69
2024/04/12 20:43:23;;;;;;;21.20;6.20;;;;;;;14.20;94.63;101254.08;180148;1259;45954;-70
2024/04/12 20:47:28;;;;;;;6.90;4.60;;;;;;;14.19;94.55;101256.80;180275;1259;58960;-69
2024/04/12 20:51:33;;;;;;;14.10;4.90;;;;;;;14.16;94.49;101255.25;180065;1259;44692;-70
2024/04/12 20:56:01;;;;;;;9.90;3.90;;;;;;;14.14;94.11;101251.52;180189;1258;43620;-70
2024/04/12 21:00:05;;;;;;;6.30;4.00;;;;;;;14.10;93.93;101253.46;180161;1259;43752;-70
2024/04/12 21:04:08;;;;;;;7.30;4.10;;;;;;;14.06;93.69;101246.24;180279;1257;44509;-69
2024/04/12 21:08:14;;;;;;;6.20;4.30;;;;;;;14.02;93.51;101246.60;180233;1259;58696;-70
2024/04/12 21:12:18;;;;;;;8.00;4.50;;;;;;;13.99;93.37;101249.90;180206;1258;43596;-70
2024/04/12 21:16:21;;;;;;;12.60;4.30;;;;;;;13.95;93.55;101249.45;180216;1259;43703;-69
2024/04/12 21:20:25;;;;;;;5.90;4.10;;;;;;;13.88;94.10;101253.62;180108;1259;43787;-68
2024/04/12 21:24:29;;;;;;;8.30;3.80;;;;;;;13.78;94.53;101250.98;180358;1258;43515;-70
2024/04/12 21:28:33;;;;;;;9.20;4.80;;;;;;;13.73;95.16;101256.57;180258;1259;57763;-70
2024/04/12 21:32:39;;;;;;;5.70;3.60;;;;;;;13.68;95.13;101256.95;180364;1259;43903;-69
2024/04/12 21:36:48;;;;;;;5.10;4.00;;;;;;;13.69;95.15;101255.11;180035;1259;43816;-70
2024/04/12 21:41:05;;;;;;;5.50;3.40;;;;;;;13.68;94.94;101251.09;179823;1259;45009;-70
2024/04/12 21:45:09;;;;;;;6.00;4.90;;;;;;;13.63;95.04;101252.51;179988;1259;46045;-71
2024/04/12 21:49:12;;;;;;;6.10;3.90;;;;;;;13.57;95.11;101250.33;179951;1259;58917;-72
2024/04/12 21:53:20;;;;;;;18.50;5.70;;;;;;;13.53;95.27;101245.65;179959;1260;46085;-70
2024/04/12 21:57:24;;;;;;;5.50;3.50;;;;;;;13.48;94.94;101243.59;179993;1259;46127;-71
2024/04/12 22:01:31;;;;;;;11.50;5.40;;;;;;;13.42;94.81;101245.63;179968;1259;45908;-71
2024/04/12 22:05:35;;;;;;;;;;;;;;;13.35;95.28;101247.61;179833;1259;43737;-70
2024/04/12 22:09:38;;;;;;;5.10;4.30;;;;;;;13.27;95.98;101244.08;179855;1259;58310;-70